Time;durP1;ratioP1;P1;durP2;ratioP2;P2;SDS_P1;SDS_P2;PMS_P1;PMS_P2;Temp;Humidity;BMP_temperature;BMP_pressure;BME280_temperature;BME280_humidity;BME280_pressure;Samples;Min_cycle;Max_cycle;Signal;HPM_P1;HPM_P2
2021/09/01 00:02:17;;;;;;;12.55;8.20;;;;;;;15.97;73.52;100160.05;1771739;80;21446;-52
2021/09/01 00:05:23;;;;;;;13.78;8.33;;;;;;;15.92;73.60;100162.08;1770937;80;21213;-52
2021/09/01 00:08:27;;;;;;;12.43;8.60;;;;;;;15.88;73.76;100154.45;1770465;80;21691;-53
2021/09/01 00:11:33;;;;;;;12.93;8.18;;;;;;;15.84;73.92;100147.12;1770352;80;21209;-52
2021/09/01 00:14:38;;;;;;;12.58;8.15;;;;;;;15.80;74.22;100144.48;1762281;81;21331;-53
2021/09/01 00:17:44;;;;;;;12.85;7.80;;;;;;;15.77;74.40;100149.06;1771386;80;21188;-53
2021/09/01 00:20:50;;;;;;;12.20;7.60;;;;;;;15.75;74.57;100145.66;1770637;80;21276;-52
2021/09/01 00:23:56;;;;;;;11.12;7.87;;;;;;;15.69;74.60;100147.91;1770678;81;21347;-53
2021/09/01 00:27:01;;;;;;;10.48;7.75;;;;;;;15.63;74.85;100150.15;1771710;79;21252;-53
2021/09/01 00:30:06;;;;;;;12.00;8.35;;;;;;;15.62;74.98;100147.05;1770510;80;21264;-52
2021/09/01 00:33:11;;;;;;;11.18;8.00;;;;;;;15.61;75.07;100147.27;1771556;80;21201;-53
2021/09/01 00:36:18;;;;;;;12.43;8.38;;;;;;;15.58;75.01;100145.80;1770739;79;21178;-53
2021/09/01 00:39:23;;;;;;;14.18;9.00;;;;;;;15.60;75.06;100148.34;1770275;80;21861;-52
2021/09/01 00:42:28;;;;;;;13.53;9.05;;;;;;;15.59;75.08;100145.24;1770745;81;21165;-52
2021/09/01 00:45:35;;;;;;;13.93;8.38;;;;;;;15.56;75.14;100149.29;1771604;80;21248;-53
2021/09/01 00:48:41;;;;;;;13.20;8.95;;;;;;;15.51;75.19;100151.84;1771646;80;21248;-53
2021/09/01 00:51:53;;;;;;;12.90;8.50;;;;;;;15.48;75.33;100143.98;1770964;80;21686;-54
2021/09/01 00:54:59;;;;;;;12.40;8.48;;;;;;;15.43;75.48;100147.09;1770699;80;21283;-53
2021/09/01 00:58:04;;;;;;;11.20;8.40;;;;;;;15.40;75.80;100146.96;1771056;81;21201;-53
2021/09/01 01:01:18;;;;;;;10.60;8.48;;;;;;;15.35;75.57;100150.85;1770625;80;21812;-53
2021/09/01 01:04:25;;;;;;;11.93;8.43;;;;;;;15.26;75.69;100154.89;1771046;80;21220;-53
2021/09/01 01:07:30;;;;;;;11.20;8.50;;;;;;;15.21;76.25;100149.16;1770078;80;21165;-54
2021/09/01 01:10:38;;;;;;;11.80;8.33;;;;;;;15.20;76.48;100144.71;1762224;80;21742;-54
2021/09/01 01:13:44;;;;;;;19.23;9.18;;;;;;;15.17;76.24;100143.75;1770992;80;21209;-53
2021/09/01 01:16:49;;;;;;;12.18;9.05;;;;;;;15.09;76.44;100135.69;1771047;80;21229;-53
2021/09/01 01:19:56;;;;;;;14.55;9.28;;;;;;;15.07;76.86;100142.45;1770377;80;21217;-53
2021/09/01 01:23:02;;;;;;;16.30;9.65;;;;;;;15.07;77.16;100144.69;1770413;80;21675;-53
2021/09/01 01:26:08;;;;;;;15.23;10.03;;;;;;;15.05;77.08;100148.17;1770632;80;21161;-53
2021/09/01 01:29:15;;;;;;;13.08;9.73;;;;;;;15.03;77.16;100147.56;1770476;80;21204;-53
2021/09/01 01:32:21;;;;;;;11.93;9.55;;;;;;;14.99;77.12;100147.65;1771027;80;21774;-53
2021/09/01 01:35:42;;;;;;;12.93;9.43;;;;;;;14.94;77.28;100157.07;1771462;80;21231;-53
2021/09/01 01:38:48;;;;;;;17.25;9.83;;;;;;;14.90;77.65;100157.19;1770670;81;21272;-52
2021/09/01 01:41:54;;;;;;;15.60;9.53;;;;;;;14.90;77.96;100153.05;1770224;80;21252;-52
2021/09/01 01:45:00;;;;;;;14.38;9.20;;;;;;;14.89;78.09;100152.70;1770982;80;21232;-54
2021/09/01 01:48:07;;;;;;;16.30;8.93;;;;;;;14.91;78.34;100147.84;1771551;80;21339;-53
2021/09/01 01:51:12;;;;;;;15.75;9.80;;;;;;;14.95;78.29;100151.90;1774994;79;21343;-54
2021/09/01 01:54:19;;;;;;;14.38;9.53;;;;;;;14.99;78.13;100146.27;1770274;80;21276;-53
2021/09/01 01:57:25;;;;;;;13.85;9.55;;;;;;;15.01;77.93;100157.95;1769560;81;21224;-53
2021/09/01 02:00:32;;;;;;;17.65;9.63;;;;;;;15.03;77.76;100152.22;1771214;80;21229;-53
2021/09/01 02:03:38;;;;;;;12.82;9.20;;;;;;;15.05;77.65;100151.48;1771215;80;21170;-53
2021/09/01 02:06:43;;;;;;;17.20;9.93;;;;;;;15.05;77.48;100151.48;1770985;80;21362;-53
2021/09/01 02:09:48;;;;;;;11.55;9.30;;;;;;;15.03;77.37;100153.08;1770781;80;21280;-53
2021/09/01 02:12:56;;;;;;;16.12;9.95;;;;;;;15.02;77.36;100147.23;1770595;80;21568;-53
2021/09/01 02:16:01;;;;;;;12.90;9.98;;;;;;;15.00;77.34;100146.58;1770711;80;21259;-53
2021/09/01 02:19:08;;;;;;;18.55;11.63;;;;;;;14.99;77.32;100153.16;1770337;80;21742;-54
2021/09/01 02:22:13;;;;;;;20.15;10.60;;;;;;;14.97;77.29;100149.23;1770231;80;21188;-53
2021/09/01 02:25:19;;;;;;;19.80;9.73;;;;;;;14.95;77.29;100144.45;1771136;80;21722;-53
2021/09/01 02:28:25;;;;;;;13.00;9.65;;;;;;;14.94;77.25;100140.53;1771075;80;21243;-53
2021/09/01 02:31:30;;;;;;;14.85;9.73;;;;;;;14.91;77.12;100147.84;1770375;80;21839;-53
2021/09/01 02:34:36;;;;;;;11.63;9.38;;;;;;;14.90;77.06;100144.78;1771548;80;21217;-53
2021/09/01 02:37:42;;;;;;;15.50;9.85;;;;;;;14.90;76.91;100147.53;1770695;80;21204;-53
2021/09/01 02:40:47;;;;;;;13.88;10.18;;;;;;;14.87;76.84;100143.27;1770810;80;21212;-53
2021/09/01 02:43:55;;;;;;;13.70;9.90;;;;;;;14.85;76.82;100143.17;1770636;80;21255;-53
2021/09/01 02:47:02;;;;;;;15.72;10.00;;;;;;;14.80;76.77;100146.56;1770897;80;21205;-53
2021/09/01 02:50:11;;;;;;;17.95;11.50;;;;;;;14.77;76.80;100154.39;1771037;80;21228;-53
2021/09/01 02:53:16;;;;;;;12.75;9.70;;;;;;;14.73;76.89;100151.20;1771044;81;21248;-52
2021/09/01 02:56:21;;;;;;;16.17;10.65;;;;;;;14.70;76.97;100146.63;1771677;79;21354;-53
2021/09/01 02:59:27;;;;;;;15.93;9.90;;;;;;;14.63;77.02;100154.04;1771029;80;21255;-54
2021/09/01 03:02:34;;;;;;;16.85;9.73;;;;;;;14.57;77.36;100150.74;1770680;80;21227;-51
2021/09/01 03:05:40;;;;;;;13.70;10.25;;;;;;;14.55;77.63;100152.84;1770898;80;21228;-51
2021/09/01 03:08:45;;;;;;;16.30;10.60;;;;;;;14.51;77.74;100152.92;1763827;80;21231;-51
2021/09/01 03:11:50;;;;;;;14.87;11.22;;;;;;;14.48;77.91;100156.09;1770349;80;21205;-52
2021/09/01 03:14:56;;;;;;;13.70;10.05;;;;;;;14.48;78.08;100150.59;1770439;81;21351;-49
2021/09/01 03:18:02;;;;;;;15.58;11.22;;;;;;;14.47;78.11;100148.90;1770946;80;21343;-52
2021/09/01 03:21:09;;;;;;;15.60;11.15;;;;;;;14.47;78.24;100151.13;1770854;80;21197;-50
2021/09/01 03:24:15;;;;;;;35.28;24.82;;;;;;;14.47;78.22;100150.27;1770895;81;21355;-50
2021/09/01 03:27:20;;;;;;;20.48;16.05;;;;;;;14.44;78.31;100152.92;1770937;80;21288;-50
2021/09/01 03:30:26;;;;;;;15.23;12.05;;;;;;;14.45;78.41;100146.87;1770728;81;21252;-50
2021/09/01 03:33:32;;;;;;;15.30;12.55;;;;;;;14.47;78.45;100151.66;1771320;80;21738;-50
2021/09/01 03:36:37;;;;;;;16.87;12.18;;;;;;;14.49;78.50;100153.13;1770557;80;21193;-49
2021/09/01 03:39:43;;;;;;;18.75;12.60;;;;;;;14.52;78.40;100151.89;1771035;81;21362;-50
2021/09/01 03:42:49;;;;;;;15.48;12.95;;;;;;;14.55;78.32;100157.84;1770940;81;21196;-50
2021/09/01 03:45:55;;;;;;;17.95;11.83;;;;;;;14.59;78.28;100157.73;1771012;80;21351;-50
2021/09/01 03:49:01;;;;;;;15.80;13.00;;;;;;;14.62;78.24;100163.34;1770767;81;21613;-50
2021/09/01 03:52:06;;;;;;;16.00;12.60;;;;;;;14.65;78.23;100160.20;1770802;80;21237;-52
2021/09/01 03:55:12;;;;;;;19.92;13.53;;;;;;;14.68;78.25;100168.05;1780981;79;21224;-51
2021/09/01 03:58:17;;;;;;;18.32;12.33;;;;;;;14.73;78.28;100166.91;1771730;80;21280;-50
2021/09/01 04:01:22;;;;;;;15.65;11.85;;;;;;;14.79;78.29;100168.81;1771516;80;21182;-50
2021/09/01 04:04:28;;;;;;;16.32;12.25;;;;;;;14.85;78.29;100166.60;1770670;80;21256;-51
2021/09/01 04:07:33;;;;;;;16.70;12.05;;;;;;;14.91;78.14;100172.66;1772254;80;21389;-51
2021/09/01 04:10:38;;;;;;;15.48;11.95;;;;;;;14.97;78.08;100172.67;1771750;80;21197;-51
2021/09/01 04:13:45;;;;;;;16.35;11.65;;;;;;;15.04;78.05;100176.82;1772138;80;22081;-50
2021/09/01 04:16:49;;;;;;;18.62;12.98;;;;;;;15.11;77.99;100176.28;1772752;80;21216;-50
2021/09/01 04:19:57;;;;;;;15.38;12.55;;;;;;;15.17;77.99;100169.95;1781963;79;21190;-49
2021/09/01 04:23:04;;;;;;;15.70;12.18;;;;;;;15.25;77.91;100170.27;1771514;81;21169;-49
2021/09/01 04:26:09;;;;;;;16.32;12.07;;;;;;;15.34;77.83;100170.38;1772945;80;21319;-49
2021/09/01 04:29:14;;;;;;;17.35;12.43;;;;;;;15.41;77.81;100172.13;1772007;80;21216;-49
2021/09/01 04:32:20;;;;;;;20.55;12.37;;;;;;;15.49;77.67;100178.78;1772137;80;21303;-50
2021/09/01 04:35:25;;;;;;;16.00;11.60;;;;;;;15.58;77.44;100178.05;1772500;80;21816;-50
2021/09/01 04:38:32;;;;;;;17.30;11.75;;;;;;;15.63;77.29;100179.13;1773115;79;21332;-49
2021/09/01 04:41:37;;;;;;;16.10;11.68;;;;;;;15.72;77.15;100185.25;1771926;80;21710;-50
2021/09/01 04:44:43;;;;;;;18.23;12.65;;;;;;;15.80;77.08;100185.03;1778910;79;21236;-48
2021/09/01 04:47:48;;;;;;;16.42;12.15;;;;;;;15.90;77.06;100193.73;1778708;79;21172;-48
2021/09/01 04:50:55;;;;;;;19.52;12.25;;;;;;;15.99;76.96;100191.05;1779550;79;21763;-49
2021/09/01 04:54:01;;;;;;;14.28;11.57;;;;;;;16.10;76.81;100196.78;1789389;79;21762;-49
2021/09/01 04:57:06;;;;;;;14.33;11.73;;;;;;;16.19;76.58;100188.56;1771188;79;21184;-50
2021/09/01 05:00:13;;;;;;;17.70;11.40;;;;;;;16.29;76.37;100188.11;1784295;79;21925;-50
2021/09/01 05:03:19;;;;;;;15.03;11.08;;;;;;;16.37;76.22;100194.26;1786423;79;21244;-50
2021/09/01 05:06:27;;;;;;;14.55;11.25;;;;;;;16.44;75.99;100195.09;1783203;79;21185;-49
2021/09/01 05:09:32;;;;;;;14.83;11.83;;;;;;;16.50;75.85;100190.63;1800305;79;21648;-49
2021/09/01 05:12:38;;;;;;;13.50;11.20;;;;;;;16.60;75.85;100191.55;1774372;79;21172;-49
2021/09/01 05:15:46;;;;;;;13.98;11.10;;;;;;;16.68;75.76;100185.21;1769143;80;21213;-49
2021/09/01 05:18:51;;;;;;;11.73;10.20;;;;;;;16.77;75.74;100177.53;1776496;79;21263;-49
2021/09/01 05:22:01;;;;;;;15.23;10.28;;;;;;;16.86;75.72;100184.48;1798460;79;21479;-54
2021/09/01 05:25:14;;;;;;;13.88;10.63;;;;;;;16.94;75.65;100182.32;1778293;79;21227;-53
2021/09/01 05:28:23;;;;;;;14.10;10.48;;;;;;;17.04;75.61;100176.30;1794940;79;21745;-53
2021/09/01 05:31:31;;;;;;;14.23;10.85;;;;;;;17.14;75.25;100177.50;1774322;79;21185;-53
2021/09/01 05:34:37;;;;;;;14.85;10.72;;;;;;;17.26;75.09;100172.11;1769951;79;21860;-53
2021/09/01 05:37:43;;;;;;;15.43;9.43;;;;;;;17.35;74.88;100176.28;1769410;79;21188;-53
2021/09/01 05:40:49;;;;;;;11.95;10.25;;;;;;;17.47;74.72;100175.92;1781841;79;21208;-53
2021/09/01 05:43:56;;;;;;;14.05;9.58;;;;;;;17.57;74.21;100178.48;1779912;79;21204;-54
2021/09/01 05:47:00;;;;;;;11.95;9.13;;;;;;;17.68;74.02;100175.50;1765589;79;21161;-54
2021/09/01 05:50:05;;;;;;;11.65;9.65;;;;;;;17.78;73.63;100173.94;1767904;81;21221;-53
2021/09/01 05:53:12;;;;;;;14.70;10.85;;;;;;;17.89;73.22;100172.33;1768938;78;21527;-54
2021/09/01 05:56:18;;;;;;;18.92;14.47;;;;;;;17.97;73.00;100176.19;1779853;78;21711;-54
2021/09/01 05:59:25;;;;;;;12.45;9.08;;;;;;;18.07;72.83;100179.30;1771196;79;21589;-55
2021/09/01 06:02:56;;;;;;;10.72;9.35;;;;;;;18.16;72.54;100182.06;1783411;79;21165;-54
2021/09/01 06:06:04;;;;;;;13.62;9.93;;;;;;;18.25;72.34;100169.59;1782595;79;21232;-54
2021/09/01 06:09:11;;;;;;;12.45;9.55;;;;;;;18.37;72.18;100167.77;1776859;78;21240;-54
2021/09/01 06:12:21;;;;;;;10.08;8.73;;;;;;;18.47;71.90;100167.25;1787019;79;21852;-54
2021/09/01 06:15:26;;;;;;;11.20;9.65;;;;;;;18.56;71.53;100160.30;1777707;79;21193;-54
2021/09/01 06:18:32;;;;;;;11.60;8.83;;;;;;;18.66;71.20;100159.22;1792745;79;21204;-54
2021/09/01 06:21:38;;;;;;;12.00;8.73;;;;;;;18.77;70.93;100155.13;1782458;79;22149;-54
2021/09/01 06:24:45;;;;;;;12.37;7.15;;;;;;;18.87;70.47;100155.39;1786428;78;21196;-52
2021/09/01 06:27:51;;;;;;;8.63;6.50;;;;;;;18.98;70.12;100155.97;1785621;78;21550;-54
2021/09/01 06:30:56;;;;;;;6.47;5.45;;;;;;;19.11;69.11;100164.11;1777189;78;21184;-53
2021/09/01 06:34:02;;;;;;;7.83;5.80;;;;;;;19.22;66.91;100173.02;1727174;81;21769;-53
2021/09/01 06:37:10;;;;;;;8.75;5.53;;;;;;;19.33;65.97;100165.29;1778377;78;21170;-53
2021/09/01 06:40:17;;;;;;;8.48;6.25;;;;;;;19.44;65.75;100164.18;1784256;77;21199;-52
2021/09/01 06:43:23;;;;;;;7.08;6.30;;;;;;;19.54;65.76;100169.44;1794348;78;21158;-53
2021/09/01 06:46:28;;;;;;;8.05;6.45;;;;;;;19.66;65.61;100173.63;1782203;78;21523;-54
2021/09/01 06:49:34;;;;;;;9.13;6.87;;;;;;;19.74;65.20;100171.32;1776699;78;21573;-53
2021/09/01 06:52:41;;;;;;;8.95;5.95;;;;;;;19.84;65.08;100170.73;1790974;78;21742;-53
2021/09/01 06:55:47;;;;;;;9.78;6.00;;;;;;;19.95;65.20;100171.27;1777453;78;21193;-54
2021/09/01 06:58:53;;;;;;;6.65;5.20;;;;;;;20.07;64.66;100171.60;1773750;78;21752;-52
2021/09/01 07:02:00;;;;;;;11.65;6.03;;;;;;;20.17;63.53;100171.02;1766725;79;21776;-53
2021/09/01 07:05:08;;;;;;;7.92;4.70;;;;;;;20.25;63.17;100163.67;1776567;79;21766;-54
2021/09/01 07:08:23;;;;;;;5.45;4.05;;;;;;;20.34;62.64;100168.61;1776626;79;21213;-54
2021/09/01 07:11:29;;;;;;;5.17;4.15;;;;;;;20.44;61.53;100168.84;1781958;79;21287;-53
2021/09/01 07:14:36;;;;;;;5.87;4.60;;;;;;;20.49;60.59;100163.94;1773983;79;21197;-54
2021/09/01 07:17:46;;;;;;;6.00;4.22;;;;;;;20.55;60.44;100167.97;1777669;79;21225;-57
2021/09/01 07:20:51;;;;;;;5.28;2.80;;;;;;;20.65;60.03;100167.34;1783183;79;21213;-56
2021/09/01 07:24:00;;;;;;;5.58;3.12;;;;;;;20.77;59.23;100172.34;1771049;79;21456;-56
2021/09/01 07:27:05;;;;;;;5.83;4.08;;;;;;;20.87;58.33;100164.18;1776647;79;21248;-57
2021/09/01 07:30:11;;;;;;;4.60;3.37;;;;;;;20.95;58.54;100162.39;1776710;79;21188;-56
2021/09/01 07:33:18;;;;;;;5.72;3.40;;;;;;;21.03;57.38;100170.38;1770086;79;21220;-52
2021/09/01 07:36:26;;;;;;;5.53;3.30;;;;;;;21.12;56.57;100167.48;1784787;79;21189;-53
2021/09/01 07:39:33;;;;;;;6.40;3.33;;;;;;;21.23;56.28;100165.19;1770709;79;21208;-53
2021/09/01 07:42:38;;;;;;;9.43;3.87;;;;;;;21.38;56.59;100164.09;1786125;79;21572;-52
2021/09/01 07:45:43;;;;;;;4.65;3.60;;;;;;;21.57;56.53;100159.11;1783190;79;21228;-53
2021/09/01 07:48:49;;;;;;;6.37;3.58;;;;;;;21.77;55.91;100158.94;1777342;79;21184;-53
2021/09/01 07:51:55;;;;;;;3.67;2.70;;;;;;;21.92;55.99;100156.41;1717757;82;21597;-54
2021/09/01 07:55:01;;;;;;;6.92;3.02;;;;;;;22.04;54.40;100161.33;1719438;82;21362;-52
2021/09/01 07:58:08;;;;;;;3.87;2.20;;;;;;;22.17;52.53;100160.97;1717031;83;22048;-52
2021/09/01 08:01:14;;;;;;;3.55;2.40;;;;;;;22.27;51.59;100150.52;1717412;83;21623;-53
2021/09/01 08:04:19;;;;;;;2.75;1.95;;;;;;;22.40;51.52;100154.88;1688032;82;21228;-54
2021/09/01 08:07:25;;;;;;;3.67;2.20;;;;;;;22.51;50.20;100155.30;1699956;84;21794;-53
2021/09/01 08:10:31;;;;;;;2.45;1.80;;;;;;;22.57;49.14;100155.14;1676240;85;21209;-53
2021/09/01 08:13:36;;;;;;;2.22;1.90;;;;;;;22.64;48.83;100156.34;1734672;82;21183;-54
2021/09/01 08:16:42;;;;;;;2.65;2.08;;;;;;;22.69;48.75;100157.23;1731056;81;21168;-55
2021/09/01 08:19:49;;;;;;;4.60;2.10;;;;;;;22.72;48.75;100150.31;1734187;81;21258;-52
2021/09/01 08:22:55;;;;;;;3.65;2.58;;;;;;;22.77;48.50;100142.83;1738346;81;21563;-53
2021/09/01 08:26:01;;;;;;;3.72;2.67;;;;;;;22.87;48.05;100136.52;1751459;81;21744;-55
2021/09/01 08:29:06;;;;;;;3.35;2.30;;;;;;;22.95;47.77;100140.23;1761752;80;21213;-53
2021/09/01 08:32:14;;;;;;;3.08;2.22;;;;;;;22.99;47.35;100131.64;1758356;81;21176;-54
2021/09/01 08:35:19;;;;;;;3.15;2.10;;;;;;;23.07;47.21;100132.57;1763014;80;21232;-54
2021/09/01 08:38:26;;;;;;;5.85;2.35;;;;;;;23.14;47.30;100122.87;1748824;80;21168;-54
2021/09/01 08:41:31;;;;;;;2.47;2.02;;;;;;;23.21;47.22;100119.86;1754496;80;21179;-54
2021/09/01 08:44:37;;;;;;;4.42;2.67;;;;;;;23.31;46.81;100111.05;1741227;80;22048;-52
2021/09/01 08:47:43;;;;;;;3.40;2.30;;;;;;;23.37;46.36;100116.15;1763314;81;21280;-53
2021/09/01 08:50:49;;;;;;;3.02;2.33;;;;;;;23.38;46.45;100112.23;1746059;81;21816;-53
2021/09/01 08:53:56;;;;;;;5.03;2.25;;;;;;;23.42;46.28;100112.01;1733190;82;21235;-52
2021/09/01 08:57:00;;;;;;;2.80;2.20;;;;;;;23.52;46.30;100114.87;1733933;81;21697;-55
2021/09/01 09:00:07;;;;;;;3.00;2.05;;;;;;;23.63;46.83;100117.21;1725027;81;21187;-54
2021/09/01 09:03:13;;;;;;;4.45;2.50;;;;;;;23.65;46.40;100110.23;1739984;78;21572;-53
2021/09/01 09:06:19;;;;;;;3.50;2.15;;;;;;;23.70;46.97;100104.69;1764832;80;21200;-55
2021/09/01 09:09:26;;;;;;;3.62;2.20;;;;;;;23.74;45.78;100098.02;1771535;80;21221;-56
2021/09/01 09:12:39;;;;;;;2.98;2.15;;;;;;;23.72;45.49;100103.02;1776927;80;21180;-54
2021/09/01 09:15:46;;;;;;;;;;;;;;;23.74;46.03;100098.83;1783730;80;21549;-56
2021/09/01 09:18:53;;;;;;;2.33;2.05;;;;;;;23.79;45.62;100097.47;1780667;80;20247;-55
2021/09/01 09:21:58;;;;;;;5.72;2.40;;;;;;;23.78;44.89;100098.59;1765064;80;21292;-56
2021/09/01 09:25:22;;;;;;;3.05;1.77;;;;;;;23.75;44.45;100089.89;1781728;80;21185;-56
2021/09/01 09:28:29;;;;;;;4.62;2.08;;;;;;;23.73;44.28;100096.30;1770133;79;21251;-56
2021/09/01 09:31:34;;;;;;;2.90;2.10;;;;;;;23.66;44.07;100089.54;1755874;80;21208;-55
2021/09/01 09:34:44;;;;;;;3.22;2.05;;;;;;;23.59;44.19;100087.55;1768125;80;21882;-54
2021/09/01 09:37:52;;;;;;;2.27;1.75;;;;;;;23.60;44.81;100087.83;1772644;80;21488;-56
2021/09/01 09:40:57;;;;;;;2.70;1.90;;;;;;;23.68;44.29;100085.94;1759347;81;21205;-56
2021/09/01 09:44:07;;;;;;;2.42;1.80;;;;;;;23.85;43.93;100086.61;1778719;80;21199;-56
2021/09/01 09:47:12;;;;;;;2.58;1.90;;;;;;;24.09;43.97;100087.06;1792175;79;22090;-55
2021/09/01 09:50:18;;;;;;;4.35;1.95;;;;;;;24.34;43.34;100086.64;1774037;79;21262;-55
2021/09/01 09:53:49;;;;;;;4.72;2.10;;;;;;;24.51;43.24;100081.70;1760407;81;21319;-55
2021/09/01 09:56:59;;;;;;;3.17;2.02;;;;;;;24.54;42.67;100095.15;1776906;79;21800;-55
2021/09/01 10:00:06;;;;;;;3.27;2.27;;;;;;;24.46;43.10;100081.67;1759852;80;21173;-55
2021/09/01 10:03:15;;;;;;;3.67;1.95;;;;;;;24.48;42.45;100089.22;1748574;81;21184;-53
2021/09/01 10:06:22;;;;;;;2.80;2.27;;;;;;;24.65;42.46;100072.22;1722040;81;21788;-53
2021/09/01 10:09:27;;;;;;;3.50;2.35;;;;;;;24.89;41.72;100065.86;1733293;82;21224;-53
2021/09/01 10:12:33;;;;;;;6.00;2.40;;;;;;;25.05;40.57;100062.55;1733551;82;21184;-54
2021/09/01 10:15:39;;;;;;;3.47;1.70;;;;;;;25.09;40.46;100062.27;1736580;81;21847;-54
2021/09/01 10:18:47;;;;;;;4.20;2.50;;;;;;;25.19;40.50;100053.03;1735696;82;21219;-53
2021/09/01 10:21:59;;;;;;;4.58;1.82;;;;;;;25.37;40.05;100058.13;1736647;82;21239;-54
2021/09/01 10:25:04;;;;;;;;;;;;;;;25.50;39.88;100068.78;1738875;82;21284;-54
2021/09/01 10:28:41;;;;;;;5.05;1.90;;;;;;;25.49;39.93;100065.67;1750017;81;20248;-53
2021/09/01 10:31:50;;;;;;;4.50;2.10;;;;;;;25.39;39.78;100065.12;1736751;82;21267;-53
2021/09/01 10:35:23;;;;;;;6.70;1.95;;;;;;;25.32;40.35;100063.69;1736698;81;21235;-53
2021/09/01 10:38:33;;;;;;;4.35;1.90;;;;;;;25.27;40.27;100058.93;1762003;81;21225;-56
2021/09/01 10:41:41;;;;;;;4.05;2.12;;;;;;;25.17;40.38;100056.66;1765449;81;21693;-55
2021/09/01 10:44:53;;;;;;;4.03;1.92;;;;;;;25.07;41.16;100052.47;1765441;81;21188;-55
2021/09/01 10:48:11;;;;;;;2.35;1.80;;;;;;;25.00;40.77;100054.98;1757704;81;21167;-56
2021/09/01 10:51:34;;;;;;;2.40;1.92;;;;;;;24.95;40.79;100052.17;1736169;81;21447;-55
2021/09/01 10:54:42;;;;;;;5.42;1.98;;;;;;;24.91;41.19;100050.21;1759396;79;21534;-56
2021/09/01 10:57:47;;;;;;;3.40;2.30;;;;;;;24.84;40.81;100048.22;1749055;81;21203;-55
2021/09/01 11:00:58;;;;;;;3.98;2.20;;;;;;;24.82;41.03;100046.25;1735779;82;21211;-55
2021/09/01 11:04:05;;;;;;;4.30;2.75;;;;;;;24.87;41.08;100041.52;1762247;81;21200;-55
2021/09/01 11:07:12;;;;;;;3.70;2.20;;;;;;;24.96;41.15;100041.23;1779111;79;21235;-57
2021/09/01 11:10:19;;;;;;;4.08;2.00;;;;;;;25.07;40.96;100035.66;1781049;79;21168;-55
2021/09/01 11:13:27;;;;;;;3.02;2.10;;;;;;;25.14;40.95;100032.86;1774213;79;21714;-55
2021/09/01 11:16:34;;;;;;;2.50;1.90;;;;;;;25.19;41.12;100023.61;1788078;79;21174;-55
2021/09/01 11:19:41;;;;;;;3.40;2.25;;;;;;;25.24;41.15;100023.61;1770586;79;21709;-55
2021/09/01 11:22:46;;;;;;;3.83;1.77;;;;;;;25.24;41.63;100025.02;1776654;79;21209;-55
2021/09/01 11:25:51;;;;;;;5.95;4.25;;;;;;;25.25;41.84;100018.28;1787602;79;21248;-56
2021/09/01 11:28:58;;;;;;;3.60;2.12;;;;;;;25.35;41.43;100019.17;1784915;79;21559;-54
2021/09/01 11:32:05;;;;;;;2.95;1.72;;;;;;;25.63;40.57;100014.91;1776921;79;21196;-56
2021/09/01 11:35:25;;;;;;;1.98;1.60;;;;;;;25.97;39.15;100003.34;1769153;80;21201;-54
2021/09/01 11:38:22;;;;;;;1.75;1.22;;;;;;;26.29;37.15;99992.59;1769965;80;21252;-55
2021/09/01 11:41:31;;;;;;;1.85;1.52;;;;;;;26.45;36.48;99990.80;1768421;80;21769;-56
2021/09/01 11:44:38;;;;;;;1.60;1.40;;;;;;;26.40;35.54;99987.20;1779202;79;21185;-55
2021/09/01 11:47:50;;;;;;;2.12;1.40;;;;;;;26.17;35.55;99991.52;1775544;79;21813;-54
2021/09/01 11:50:57;;;;;;;3.05;1.85;;;;;;;25.93;35.95;99986.78;1781304;79;21184;-55
2021/09/01 11:54:07;;;;;;;3.22;1.60;;;;;;;25.77;36.17;99983.75;1769439;80;21308;-55
2021/09/01 11:57:34;;;;;;;2.47;1.57;;;;;;;25.83;36.09;99986.84;1779556;79;21193;-55
2021/09/01 12:00:46;;;;;;;2.30;1.32;;;;;;;26.10;35.42;99981.73;1784057;79;21903;-56
2021/09/01 12:03:58;;;;;;;7.55;1.67;;;;;;;26.33;35.82;99967.02;1778554;79;21860;-56
2021/09/01 12:07:12;;;;;;;1.95;1.30;;;;;;;26.60;35.30;99962.35;1780589;79;21250;-56
2021/09/01 12:10:19;;;;;;;5.33;1.40;;;;;;;26.85;34.67;99958.84;1768667;80;21197;-57
2021/09/01 12:13:25;;;;;;;1.47;1.37;;;;;;;27.05;33.94;99958.66;1797139;79;21773;-56
2021/09/01 12:16:34;;;;;;;3.50;1.37;;;;;;;27.24;33.65;99957.40;1800326;79;21239;-56
2021/09/01 12:19:46;;;;;;;3.02;1.17;;;;;;;27.39;33.78;99958.12;1800869;79;21261;-55
2021/09/01 12:22:52;;;;;;;3.42;1.35;;;;;;;27.48;33.21;99945.08;1792326;79;21165;-54
2021/09/01 12:25:57;;;;;;;1.87;1.20;;;;;;;27.59;32.57;99945.24;1771053;79;21802;-55
2021/09/01 12:29:04;;;;;;;1.60;1.45;;;;;;;27.70;31.93;99934.14;1770552;79;21916;-56
2021/09/01 12:32:13;;;;;;;1.85;1.50;;;;;;;27.79;31.94;99940.81;1770861;81;21284;-56
2021/09/01 12:35:19;;;;;;;2.65;1.20;;;;;;;27.80;31.77;99941.07;1764214;81;21213;-57
2021/09/01 12:38:32;;;;;;;2.12;1.32;;;;;;;27.73;31.18;99932.73;1732034;81;21762;-57
2021/09/01 12:41:36;;;;;;;1.35;1.25;;;;;;;27.65;31.64;99929.98;1770958;79;21243;-55
2021/09/01 12:44:58;;;;;;;1.70;1.27;;;;;;;27.65;31.19;99930.56;1770834;80;21297;-56
2021/09/01 12:48:08;;;;;;;2.35;1.50;;;;;;;27.61;31.08;99923.28;1781061;79;21197;-56
2021/09/01 12:51:15;;;;;;;1.95;1.40;;;;;;;27.60;31.33;99921.62;1777121;79;21188;-56
2021/09/01 12:54:23;;;;;;;1.20;1.10;;;;;;;27.62;31.35;99917.92;1794556;79;21197;-56
2021/09/01 12:57:30;;;;;;;1.60;1.40;;;;;;;27.66;32.19;99919.02;1802063;79;21841;-57
2021/09/01 13:00:37;;;;;;;2.02;1.20;;;;;;;27.67;30.93;99919.28;1796322;79;21217;-55
2021/09/01 13:03:43;;;;;;;3.62;1.17;;;;;;;27.58;30.71;99926.70;1770311;81;21165;-56
2021/09/01 13:06:49;;;;;;;1.90;1.20;;;;;;;27.48;30.91;99916.95;1772731;79;21189;-55
2021/09/01 13:09:55;;;;;;;2.52;1.45;;;;;;;27.45;31.17;99916.16;1770269;78;21188;-58
2021/09/01 13:13:00;;;;;;;1.85;1.32;;;;;;;27.45;30.74;99914.75;1762861;80;21837;-58
2021/09/01 13:16:07;;;;;;;2.02;1.57;;;;;;;27.43;31.01;99911.97;1769347;80;21193;-55
2021/09/01 13:19:14;;;;;;;2.70;1.47;;;;;;;27.41;31.14;99912.27;1786287;79;21166;-55
2021/09/01 13:22:19;;;;;;;1.65;1.20;;;;;;;27.26;31.27;99911.01;1770044;80;21189;-56
2021/09/01 13:25:24;;;;;;;1.62;1.45;;;;;;;27.08;31.32;99910.89;1733199;81;21247;-56
2021/09/01 13:28:37;;;;;;;4.70;1.40;;;;;;;26.90;31.50;99902.61;1784102;79;21195;-56
2021/09/01 13:31:43;;;;;;;2.00;1.27;;;;;;;26.76;31.70;99893.19;1785034;79;21524;-57
2021/09/01 13:34:51;;;;;;;2.75;1.60;;;;;;;26.72;31.97;99897.70;1784375;79;21925;-56
2021/09/01 13:37:59;;;;;;;4.53;2.50;;;;;;;26.67;32.56;99890.70;1771152;79;21184;-56
2021/09/01 13:41:06;;;;;;;2.42;1.65;;;;;;;26.64;32.96;99885.68;1782110;79;21801;-56
2021/09/01 13:44:13;;;;;;;3.15;1.70;;;;;;;26.69;33.17;99880.62;1789719;79;21199;-55
2021/09/01 13:47:20;;;;;;;5.10;2.80;;;;;;;26.71;32.93;99876.37;1797569;79;21311;-55
2021/09/01 13:50:26;;;;;;;4.35;2.40;;;;;;;26.69;33.03;99869.38;1793330;79;21308;-55
2021/09/01 13:53:31;;;;;;;3.47;2.10;;;;;;;26.62;33.05;99866.88;1767083;80;21349;-56
2021/09/01 13:56:37;;;;;;;4.05;2.05;;;;;;;26.60;33.41;99862.11;1769488;80;21181;-56
2021/09/01 13:59:46;;;;;;;2.02;1.70;;;;;;;26.54;33.11;99861.88;1769143;80;21221;-57
2021/09/01 14:02:54;;;;;;;3.47;1.55;;;;;;;26.55;32.97;99866.91;1771258;80;21629;-56
2021/09/01 14:06:00;;;;;;;3.62;1.90;;;;;;;26.60;33.37;99862.11;1771774;79;21194;-57
2021/09/01 14:09:05;;;;;;;3.42;1.85;;;;;;;26.68;33.93;99859.26;1765724;80;21187;-55
2021/09/01 14:12:13;;;;;;;2.80;1.70;;;;;;;26.76;33.83;99861.44;1745327;81;21199;-55
2021/09/01 14:15:20;;;;;;;4.42;2.37;;;;;;;26.73;33.97;99857.26;1736817;81;22004;-55
2021/09/01 14:18:26;;;;;;;3.75;1.85;;;;;;;26.70;33.49;99854.20;1736016;81;21314;-55
2021/09/01 14:21:31;;;;;;;2.55;1.80;;;;;;;26.71;33.08;99846.88;1736518;81;21744;-54
2021/09/01 14:24:39;;;;;;;2.22;1.65;;;;;;;26.71;33.74;99851.09;1755017;80;21768;-54
2021/09/01 14:27:45;;;;;;;4.95;3.00;;;;;;;26.66;33.26;99844.11;1770283;80;21229;-55